sensor_id;sensor_type;location;lat;lon;timestamp;P1;durP1;ratioP1;P2;durP2;ratioP2
19434;SDS011;9853;50.848;4.108;2023-07-31T00:01:26;17.52;;;4.80;;
19434;SDS011;9853;50.848;4.108;2023-07-31T00:03:27;16.38;;;4.78;;
19434;SDS011;9853;50.848;4.108;2023-07-31T00:05:28;18.73;;;4.88;;
19434;SDS011;9853;50.848;4.108;2023-07-31T00:07:29;19.27;;;4.70;;
19434;SDS011;9853;50.848;4.108;2023-07-31T00:09:29;17.65;;;5.22;;
19434;SDS011;9853;50.848;4.108;2023-07-31T00:11:30;16.38;;;4.80;;
19434;SDS011;9853;50.848;4.108;2023-07-31T00:13:31;21.75;;;5.03;;
19434;SDS011;9853;50.848;4.108;2023-07-31T00:15:32;19.60;;;4.75;;
19434;SDS011;9853;50.848;4.108;2023-07-31T00:17:32;17.05;;;5.25;;
19434;SDS011;9853;50.848;4.108;2023-07-31T00:19:33;18.13;;;5.70;;
19434;SDS011;9853;50.848;4.108;2023-07-31T00:21:34;16.52;;;5.28;;
19434;SDS011;9853;50.848;4.108;2023-07-31T00:23:35;15.18;;;5.05;;
19434;SDS011;9853;50.848;4.108;2023-07-31T00:25:36;25.35;;;5.38;;
19434;SDS011;9853;50.848;4.108;2023-07-31T00:27:36;20.30;;;5.22;;
19434;SDS011;9853;50.848;4.108;2023-07-31T00:29:38;17.23;;;4.85;;
19434;SDS011;9853;50.848;4.108;2023-07-31T00:31:39;18.60;;;5.10;;
19434;SDS011;9853;50.848;4.108;2023-07-31T00:33:40;21.33;;;5.47;;
19434;SDS011;9853;50.848;4.108;2023-07-31T00:35:40;20.85;;;5.45;;
19434;SDS011;9853;50.848;4.108;2023-07-31T00:37:41;29.50;;;5.28;;
19434;SDS011;9853;50.848;4.108;2023-07-31T00:39:42;22.58;;;5.47;;
19434;SDS011;9853;50.848;4.108;2023-07-31T00:41:43;19.50;;;4.95;;
19434;SDS011;9853;50.848;4.108;2023-07-31T00:43:43;27.67;;;5.38;;
19434;SDS011;9853;50.848;4.108;2023-07-31T00:45:44;19.17;;;5.53;;
19434;SDS011;9853;50.848;4.108;2023-07-31T00:47:45;21.38;;;5.22;;
19434;SDS011;9853;50.848;4.108;2023-07-31T00:49:46;20.88;;;5.00;;
19434;SDS011;9853;50.848;4.108;2023-07-31T00:51:48;16.70;;;5.13;;
19434;SDS011;9853;50.848;4.108;2023-07-31T00:53:49;22.77;;;6.13;;
19434;SDS011;9853;50.848;4.108;2023-07-31T00:55:49;21.77;;;5.78;;
19434;SDS011;9853;50.848;4.108;2023-07-31T00:57:50;19.25;;;5.88;;
19434;SDS011;9853;50.848;4.108;2023-07-31T00:59:52;26.27;;;5.78;;
19434;SDS011;9853;50.848;4.108;2023-07-31T01:01:54;25.90;;;5.85;;
19434;SDS011;9853;50.848;4.108;2023-07-31T01:03:55;19.38;;;4.85;;
19434;SDS011;9853;50.848;4.108;2023-07-31T01:09:11;21.58;;;5.03;;
19434;SDS011;9853;50.848;4.108;2023-07-31T01:10:55;16.83;;;5.32;;
19434;SDS011;9853;50.848;4.108;2023-07-31T01:13:00;17.25;;;4.97;;
19434;SDS011;9853;50.848;4.108;2023-07-31T01:15:07;22.35;;;5.40;;
19434;SDS011;9853;50.848;4.108;2023-07-31T01:17:12;21.98;;;6.15;;
19434;SDS011;9853;50.848;4.108;2023-07-31T01:19:13;19.85;;;5.07;;
19434;SDS011;9853;50.848;4.108;2023-07-31T01:21:30;16.13;;;5.22;;
19434;SDS011;9853;50.848;4.108;2023-07-31T01:23:41;15.63;;;5.25;;
19434;SDS011;9853;50.848;4.108;2023-07-31T01:28:13;15.85;;;5.78;;
19434;SDS011;9853;50.848;4.108;2023-07-31T01:30:21;19.83;;;5.50;;
19434;SDS011;9853;50.848;4.108;2023-07-31T01:32:27;15.05;;;4.93;;
19434;SDS011;9853;50.848;4.108;2023-07-31T01:34:29;20.08;;;5.40;;
19434;SDS011;9853;50.848;4.108;2023-07-31T01:36:31;20.20;;;4.80;;
19434;SDS011;9853;50.848;4.108;2023-07-31T01:38:33;18.40;;;4.72;;
19434;SDS011;9853;50.848;4.108;2023-07-31T01:40:36;19.35;;;5.55;;
19434;SDS011;9853;50.848;4.108;2023-07-31T01:42:36;18.20;;;5.63;;
19434;SDS011;9853;50.848;4.108;2023-07-31T01:44:38;23.60;;;4.93;;
19434;SDS011;9853;50.848;4.108;2023-07-31T01:46:39;17.33;;;4.85;;
19434;SDS011;9853;50.848;4.108;2023-07-31T01:48:40;16.98;;;5.75;;
19434;SDS011;9853;50.848;4.108;2023-07-31T01:50:41;20.98;;;4.93;;
19434;SDS011;9853;50.848;4.108;2023-07-31T01:52:41;16.60;;;4.93;;
19434;SDS011;9853;50.848;4.108;2023-07-31T01:54:42;20.27;;;4.80;;
19434;SDS011;9853;50.848;4.108;2023-07-31T01:56:43;24.80;;;5.15;;
19434;SDS011;9853;50.848;4.108;2023-07-31T01:58:44;16.23;;;4.80;;
19434;SDS011;9853;50.848;4.108;2023-07-31T02:00:45;17.92;;;4.88;;
19434;SDS011;9853;50.848;4.108;2023-07-31T02:02:46;15.82;;;4.60;;
19434;SDS011;9853;50.848;4.108;2023-07-31T02:04:47;16.38;;;4.60;;
19434;SDS011;9853;50.848;4.108;2023-07-31T02:06:47;13.85;;;4.78;;
19434;SDS011;9853;50.848;4.108;2023-07-31T02:08:48;19.13;;;4.80;;
19434;SDS011;9853;50.848;4.108;2023-07-31T02:10:49;19.35;;;4.93;;
19434;SDS011;9853;50.848;4.108;2023-07-31T02:12:50;18.42;;;5.80;;
19434;SDS011;9853;50.848;4.108;2023-07-31T02:14:51;19.25;;;5.45;;
19434;SDS011;9853;50.848;4.108;2023-07-31T02:16:51;18.88;;;5.50;;
19434;SDS011;9853;50.848;4.108;2023-07-31T02:18:52;19.42;;;5.25;;
19434;SDS011;9853;50.848;4.108;2023-07-31T02:20:53;22.95;;;6.25;;
19434;SDS011;9853;50.848;4.108;2023-07-31T02:22:54;16.45;;;5.40;;
19434;SDS011;9853;50.848;4.108;2023-07-31T02:24:54;22.65;;;5.65;;
19434;SDS011;9853;50.848;4.108;2023-07-31T02:26:56;19.88;;;5.60;;
19434;SDS011;9853;50.848;4.108;2023-07-31T02:28:57;14.48;;;5.85;;
19434;SDS011;9853;50.848;4.108;2023-07-31T02:30:57;16.92;;;5.78;;
19434;SDS011;9853;50.848;4.108;2023-07-31T02:32:58;14.80;;;5.13;;
19434;SDS011;9853;50.848;4.108;2023-07-31T02:35:00;19.20;;;5.82;;
19434;SDS011;9853;50.848;4.108;2023-07-31T02:37:01;16.40;;;5.85;;
19434;SDS011;9853;50.848;4.108;2023-07-31T02:39:02;19.40;;;5.82;;
19434;SDS011;9853;50.848;4.108;2023-07-31T02:41:02;15.15;;;4.93;;
19434;SDS011;9853;50.848;4.108;2023-07-31T02:43:03;14.98;;;4.72;;
19434;SDS011;9853;50.848;4.108;2023-07-31T02:45:04;14.27;;;5.45;;
19434;SDS011;9853;50.848;4.108;2023-07-31T02:47:05;10.07;;;4.55;;
19434;SDS011;9853;50.848;4.108;2023-07-31T02:49:08;13.25;;;4.90;;
19434;SDS011;9853;50.848;4.108;2023-07-31T02:51:08;14.05;;;5.28;;
19434;SDS011;9853;50.848;4.108;2023-07-31T02:53:09;14.13;;;5.25;;
19434;SDS011;9853;50.848;4.108;2023-07-31T02:55:10;14.43;;;4.95;;
19434;SDS011;9853;50.848;4.108;2023-07-31T02:57:11;16.65;;;4.95;;
19434;SDS011;9853;50.848;4.108;2023-07-31T02:59:11;13.88;;;4.95;;
19434;SDS011;9853;50.848;4.108;2023-07-31T03:01:12;11.02;;;4.57;;
19434;SDS011;9853;50.848;4.108;2023-07-31T03:03:13;12.85;;;4.82;;
19434;SDS011;9853;50.848;4.108;2023-07-31T03:05:14;15.43;;;4.90;;
19434;SDS011;9853;50.848;4.108;2023-07-31T03:07:15;12.88;;;4.75;;
19434;SDS011;9853;50.848;4.108;2023-07-31T03:09:15;11.75;;;4.55;;
19434;SDS011;9853;50.848;4.108;2023-07-31T03:11:17;11.93;;;4.15;;
19434;SDS011;9853;50.848;4.108;2023-07-31T03:13:18;10.88;;;4.68;;
19434;SDS011;9853;50.848;4.108;2023-07-31T03:15:19;14.75;;;4.93;;
19434;SDS011;9853;50.848;4.108;2023-07-31T03:17:20;15.05;;;5.53;;
19434;SDS011;9853;50.848;4.108;2023-07-31T03:19:20;14.98;;;5.43;;
19434;SDS011;9853;50.848;4.108;2023-07-31T03:21:21;14.90;;;5.30;;
19434;SDS011;9853;50.848;4.108;2023-07-31T03:23:23;14.13;;;5.22;;
19434;SDS011;9853;50.848;4.108;2023-07-31T03:25:25;13.15;;;4.85;;
19434;SDS011;9853;50.848;4.108;2023-07-31T03:27:26;10.13;;;4.85;;
19434;SDS011;9853;50.848;4.108;2023-07-31T03:29:27;10.60;;;4.40;;
19434;SDS011;9853;50.848;4.108;2023-07-31T03:31:27;13.80;;;4.60;;
19434;SDS011;9853;50.848;4.108;2023-07-31T03:33:28;9.23;;;4.35;;
19434;SDS011;9853;50.848;4.108;2023-07-31T03:35:29;10.60;;;4.38;;
19434;SDS011;9853;50.848;4.108;2023-07-31T03:37:30;19.05;;;5.10;;
19434;SDS011;9853;50.848;4.108;2023-07-31T03:39:31;11.73;;;4.65;;
19434;SDS011;9853;50.848;4.108;2023-07-31T03:41:32;13.55;;;5.00;;
19434;SDS011;9853;50.848;4.108;2023-07-31T03:43:32;13.20;;;5.70;;
19434;SDS011;9853;50.848;4.108;2023-07-31T03:45:36;10.18;;;4.60;;
19434;SDS011;9853;50.848;4.108;2023-07-31T03:47:37;15.52;;;4.53;;
19434;SDS011;9853;50.848;4.108;2023-07-31T03:49:38;11.35;;;4.97;;
19434;SDS011;9853;50.848;4.108;2023-07-31T03:51:39;13.80;;;5.13;;
19434;SDS011;9853;50.848;4.108;2023-07-31T03:53:40;12.90;;;4.82;;
19434;SDS011;9853;50.848;4.108;2023-07-31T03:55:40;11.93;;;4.55;;
19434;SDS011;9853;50.848;4.108;2023-07-31T03:57:41;11.40;;;4.22;;
19434;SDS011;9853;50.848;4.108;2023-07-31T03:59:42;12.48;;;4.53;;
19434;SDS011;9853;50.848;4.108;2023-07-31T04:01:43;13.32;;;4.55;;
19434;SDS011;9853;50.848;4.108;2023-07-31T04:03:43;14.93;;;4.63;;
19434;SDS011;9853;50.848;4.108;2023-07-31T04:05:44;13.65;;;4.45;;
19434;SDS011;9853;50.848;4.108;2023-07-31T04:07:45;13.20;;;4.45;;
19434;SDS011;9853;50.848;4.108;2023-07-31T04:09:46;11.38;;;5.03;;
19434;SDS011;9853;50.848;4.108;2023-07-31T04:11:47;10.80;;;4.38;;
19434;SDS011;9853;50.848;4.108;2023-07-31T04:13:48;10.02;;;4.55;;
19434;SDS011;9853;50.848;4.108;2023-07-31T04:15:49;13.75;;;4.97;;
19434;SDS011;9853;50.848;4.108;2023-07-31T04:17:51;11.38;;;3.88;;
19434;SDS011;9853;50.848;4.108;2023-07-31T04:19:52;11.00;;;4.40;;
19434;SDS011;9853;50.848;4.108;2023-07-31T04:21:53;13.45;;;5.03;;
19434;SDS011;9853;50.848;4.108;2023-07-31T04:23:53;12.27;;;4.55;;
19434;SDS011;9853;50.848;4.108;2023-07-31T04:25:56;12.57;;;4.63;;
19434;SDS011;9853;50.848;4.108;2023-07-31T04:27:56;13.25;;;4.20;;
19434;SDS011;9853;50.848;4.108;2023-07-31T04:29:57;10.73;;;4.30;;
19434;SDS011;9853;50.848;4.108;2023-07-31T04:31:58;10.90;;;4.47;;
19434;SDS011;9853;50.848;4.108;2023-07-31T04:33:59;12.10;;;4.20;;
19434;SDS011;9853;50.848;4.108;2023-07-31T04:36:00;12.70;;;4.63;;
19434;SDS011;9853;50.848;4.108;2023-07-31T04:38:00;16.88;;;4.60;;
19434;SDS011;9853;50.848;4.108;2023-07-31T04:40:02;9.18;;;3.95;;
19434;SDS011;9853;50.848;4.108;2023-07-31T04:42:03;14.20;;;4.32;;
19434;SDS011;9853;50.848;4.108;2023-07-31T04:44:04;11.55;;;4.07;;
19434;SDS011;9853;50.848;4.108;2023-07-31T04:46:05;11.00;;;3.95;;
19434;SDS011;9853;50.848;4.108;2023-07-31T04:48:05;11.25;;;4.30;;
19434;SDS011;9853;50.848;4.108;2023-07-31T04:50:06;12.63;;;4.57;;
19434;SDS011;9853;50.848;4.108;2023-07-31T04:52:08;14.38;;;3.80;;
19434;SDS011;9853;50.848;4.108;2023-07-31T04:54:08;10.57;;;4.35;;
19434;SDS011;9853;50.848;4.108;2023-07-31T04:56:09;11.93;;;4.20;;
19434;SDS011;9853;50.848;4.108;2023-07-31T04:58:10;19.75;;;4.63;;
19434;SDS011;9853;50.848;4.108;2023-07-31T05:00:11;12.35;;;3.75;;
19434;SDS011;9853;50.848;4.108;2023-07-31T05:02:12;10.43;;;3.92;;
19434;SDS011;9853;50.848;4.108;2023-07-31T05:04:16;12.80;;;3.92;;
19434;SDS011;9853;50.848;4.108;2023-07-31T05:06:17;11.48;;;4.65;;
19434;SDS011;9853;50.848;4.108;2023-07-31T05:08:17;9.13;;;3.80;;
19434;SDS011;9853;50.848;4.108;2023-07-31T05:10:18;13.95;;;4.03;;
19434;SDS011;9853;50.848;4.108;2023-07-31T05:12:19;10.68;;;3.72;;
19434;SDS011;9853;50.848;4.108;2023-07-31T05:14:20;11.48;;;4.18;;
19434;SDS011;9853;50.848;4.108;2023-07-31T05:16:20;10.40;;;4.07;;
19434;SDS011;9853;50.848;4.108;2023-07-31T05:18:22;9.63;;;4.22;;
19434;SDS011;9853;50.848;4.108;2023-07-31T05:20:22;12.90;;;4.60;;
19434;SDS011;9853;50.848;4.108;2023-07-31T05:22:23;12.20;;;4.18;;
19434;SDS011;9853;50.848;4.108;2023-07-31T05:24:24;9.23;;;4.07;;
19434;SDS011;9853;50.848;4.108;2023-07-31T05:26:25;12.82;;;3.72;;
19434;SDS011;9853;50.848;4.108;2023-07-31T05:28:25;10.35;;;3.88;;
19434;SDS011;9853;50.848;4.108;2023-07-31T05:30:26;12.02;;;4.15;;
19434;SDS011;9853;50.848;4.108;2023-07-31T05:32:29;11.80;;;3.90;;
19434;SDS011;9853;50.848;4.108;2023-07-31T05:34:30;11.98;;;3.70;;
19434;SDS011;9853;50.848;4.108;2023-07-31T05:36:31;9.45;;;3.72;;
19434;SDS011;9853;50.848;4.108;2023-07-31T05:38:32;11.23;;;3.45;;
19434;SDS011;9853;50.848;4.108;2023-07-31T05:40:33;11.27;;;3.47;;
19434;SDS011;9853;50.848;4.108;2023-07-31T05:42:34;9.45;;;4.20;;
19434;SDS011;9853;50.848;4.108;2023-07-31T05:44:36;18.15;;;4.30;;
19434;SDS011;9853;50.848;4.108;2023-07-31T05:46:37;13.10;;;4.40;;
19434;SDS011;9853;50.848;4.108;2023-07-31T05:48:38;12.73;;;4.43;;
19434;SDS011;9853;50.848;4.108;2023-07-31T05:50:39;10.23;;;4.10;;
19434;SDS011;9853;50.848;4.108;2023-07-31T05:52:40;10.63;;;3.95;;
19434;SDS011;9853;50.848;4.108;2023-07-31T05:54:41;11.07;;;4.13;;
19434;SDS011;9853;50.848;4.108;2023-07-31T05:56:43;9.38;;;3.60;;
19434;SDS011;9853;50.848;4.108;2023-07-31T05:58:43;13.57;;;3.75;;
19434;SDS011;9853;50.848;4.108;2023-07-31T06:00:44;14.10;;;3.83;;
19434;SDS011;9853;50.848;4.108;2023-07-31T06:02:45;6.72;;;3.45;;
19434;SDS011;9853;50.848;4.108;2023-07-31T06:04:47;9.10;;;3.58;;
19434;SDS011;9853;50.848;4.108;2023-07-31T06:06:48;9.10;;;3.58;;
19434;SDS011;9853;50.848;4.108;2023-07-31T06:08:49;10.45;;;3.58;;
19434;SDS011;9853;50.848;4.108;2023-07-31T06:10:50;11.02;;;3.83;;
19434;SDS011;9853;50.848;4.108;2023-07-31T06:12:51;12.98;;;3.90;;
19434;SDS011;9853;50.848;4.108;2023-07-31T06:14:51;8.10;;;3.45;;
19434;SDS011;9853;50.848;4.108;2023-07-31T06:16:52;10.10;;;3.38;;
19434;SDS011;9853;50.848;4.108;2023-07-31T06:18:53;12.93;;;3.72;;
19434;SDS011;9853;50.848;4.108;2023-07-31T06:20:54;9.80;;;3.28;;
19434;SDS011;9853;50.848;4.108;2023-07-31T06:22:55;13.77;;;3.50;;
19434;SDS011;9853;50.848;4.108;2023-07-31T06:24:55;9.35;;;3.67;;
19434;SDS011;9853;50.848;4.108;2023-07-31T06:26:56;11.85;;;3.65;;
19434;SDS011;9853;50.848;4.108;2023-07-31T06:28:57;10.38;;;3.17;;
19434;SDS011;9853;50.848;4.108;2023-07-31T06:30:58;8.00;;;3.20;;
19434;SDS011;9853;50.848;4.108;2023-07-31T06:32:59;13.75;;;3.22;;
19434;SDS011;9853;50.848;4.108;2023-07-31T06:35:00;7.75;;;3.38;;
19434;SDS011;9853;50.848;4.108;2023-07-31T06:37:01;14.10;;;3.45;;
19434;SDS011;9853;50.848;4.108;2023-07-31T06:39:01;10.88;;;3.25;;
19434;SDS011;9853;50.848;4.108;2023-07-31T06:41:02;6.28;;;3.05;;
19434;SDS011;9853;50.848;4.108;2023-07-31T06:43:04;10.98;;;3.63;;
19434;SDS011;9853;50.848;4.108;2023-07-31T06:45:08;10.90;;;3.30;;
19434;SDS011;9853;50.848;4.108;2023-07-31T06:47:09;13.93;;;3.55;;
19434;SDS011;9853;50.848;4.108;2023-07-31T06:49:10;11.02;;;3.45;;
19434;SDS011;9853;50.848;4.108;2023-07-31T06:51:11;9.55;;;3.50;;
19434;SDS011;9853;50.848;4.108;2023-07-31T06:53:11;10.50;;;3.38;;
19434;SDS011;9853;50.848;4.108;2023-07-31T06:55:19;10.18;;;3.45;;
19434;SDS011;9853;50.848;4.108;2023-07-31T06:57:21;8.98;;;3.25;;
19434;SDS011;9853;50.848;4.108;2023-07-31T06:59:22;13.82;;;3.53;;
19434;SDS011;9853;50.848;4.108;2023-07-31T07:01:23;10.05;;;3.40;;
19434;SDS011;9853;50.848;4.108;2023-07-31T07:03:24;9.40;;;3.22;;
19434;SDS011;9853;50.848;4.108;2023-07-31T07:05:25;11.13;;;3.20;;
19434;SDS011;9853;50.848;4.108;2023-07-31T07:07:26;8.45;;;3.25;;
19434;SDS011;9853;50.848;4.108;2023-07-31T07:09:27;9.55;;;3.28;;
19434;SDS011;9853;50.848;4.108;2023-07-31T07:11:27;12.98;;;3.30;;
19434;SDS011;9853;50.848;4.108;2023-07-31T07:13:28;9.07;;;3.47;;
19434;SDS011;9853;50.848;4.108;2023-07-31T07:15:32;9.27;;;3.10;;
19434;SDS011;9853;50.848;4.108;2023-07-31T07:17:32;14.57;;;3.28;;
19434;SDS011;9853;50.848;4.108;2023-07-31T07:19:33;13.45;;;3.97;;
19434;SDS011;9853;50.848;4.108;2023-07-31T07:21:34;10.23;;;2.95;;
19434;SDS011;9853;50.848;4.108;2023-07-31T07:23:35;9.25;;;3.35;;
19434;SDS011;9853;50.848;4.108;2023-07-31T07:25:37;10.30;;;2.97;;
19434;SDS011;9853;50.848;4.108;2023-07-31T07:27:38;7.63;;;3.08;;
19434;SDS011;9853;50.848;4.108;2023-07-31T07:29:39;11.20;;;3.38;;
19434;SDS011;9853;50.848;4.108;2023-07-31T07:31:39;10.13;;;3.17;;
19434;SDS011;9853;50.848;4.108;2023-07-31T07:33:40;12.40;;;3.58;;
19434;SDS011;9853;50.848;4.108;2023-07-31T07:35:41;12.07;;;3.58;;
19434;SDS011;9853;50.848;4.108;2023-07-31T07:37:41;13.50;;;3.60;;
19434;SDS011;9853;50.848;4.108;2023-07-31T07:39:42;11.38;;;3.35;;
19434;SDS011;9853;50.848;4.108;2023-07-31T07:41:43;8.63;;;3.17;;
19434;SDS011;9853;50.848;4.108;2023-07-31T07:43:44;11.90;;;3.03;;
19434;SDS011;9853;50.848;4.108;2023-07-31T07:45:45;12.90;;;3.47;;
19434;SDS011;9853;50.848;4.108;2023-07-31T07:47:45;11.52;;;3.10;;
19434;SDS011;9853;50.848;4.108;2023-07-31T07:49:46;9.50;;;3.55;;
19434;SDS011;9853;50.848;4.108;2023-07-31T07:51:47;10.48;;;3.33;;
19434;SDS011;9853;50.848;4.108;2023-07-31T07:53:48;14.65;;;3.00;;
19434;SDS011;9853;50.848;4.108;2023-07-31T07:55:49;7.43;;;2.45;;
19434;SDS011;9853;50.848;4.108;2023-07-31T07:57:50;8.98;;;3.08;;
19434;SDS011;9853;50.848;4.108;2023-07-31T07:59:50;6.88;;;2.85;;
19434;SDS011;9853;50.848;4.108;2023-07-31T08:01:51;7.00;;;2.72;;
19434;SDS011;9853;50.848;4.108;2023-07-31T08:03:52;11.75;;;3.53;;
19434;SDS011;9853;50.848;4.108;2023-07-31T08:05:57;13.43;;;3.22;;
19434;SDS011;9853;50.848;4.108;2023-07-31T08:08:01;9.38;;;2.75;;
19434;SDS011;9853;50.848;4.108;2023-07-31T08:10:02;10.85;;;2.90;;
19434;SDS011;9853;50.848;4.108;2023-07-31T08:12:03;7.18;;;3.03;;
19434;SDS011;9853;50.848;4.108;2023-07-31T08:14:04;8.40;;;2.85;;
19434;SDS011;9853;50.848;4.108;2023-07-31T08:16:05;6.95;;;3.00;;
19434;SDS011;9853;50.848;4.108;2023-07-31T08:18:05;11.32;;;3.50;;
19434;SDS011;9853;50.848;4.108;2023-07-31T08:20:06;6.63;;;2.88;;
19434;SDS011;9853;50.848;4.108;2023-07-31T08:22:08;10.70;;;3.20;;
19434;SDS011;9853;50.848;4.108;2023-07-31T08:24:08;7.63;;;3.15;;
19434;SDS011;9853;50.848;4.108;2023-07-31T08:26:15;4.75;;;2.67;;
19434;SDS011;9853;50.848;4.108;2023-07-31T08:28:17;9.65;;;3.05;;
19434;SDS011;9853;50.848;4.108;2023-07-31T08:30:18;10.23;;;3.10;;
19434;SDS011;9853;50.848;4.108;2023-07-31T08:32:19;8.23;;;2.90;;
19434;SDS011;9853;50.848;4.108;2023-07-31T08:34:20;5.80;;;2.75;;
19434;SDS011;9853;50.848;4.108;2023-07-31T08:36:21;16.20;;;3.00;;
19434;SDS011;9853;50.848;4.108;2023-07-31T08:38:25;7.20;;;2.92;;
19434;SDS011;9853;50.848;4.108;2023-07-31T08:40:26;9.60;;;2.80;;
19434;SDS011;9853;50.848;4.108;2023-07-31T08:42:28;11.43;;;3.55;;
19434;SDS011;9853;50.848;4.108;2023-07-31T08:44:29;13.82;;;3.35;;
19434;SDS011;9853;50.848;4.108;2023-07-31T08:46:32;8.18;;;2.90;;
19434;SDS011;9853;50.848;4.108;2023-07-31T08:48:33;15.25;;;3.50;;
19434;SDS011;9853;50.848;4.108;2023-07-31T08:50:38;10.85;;;3.50;;
19434;SDS011;9853;50.848;4.108;2023-07-31T08:52:39;10.40;;;3.03;;
19434;SDS011;9853;50.848;4.108;2023-07-31T08:54:40;17.02;;;3.33;;
19434;SDS011;9853;50.848;4.108;2023-07-31T08:56:41;8.88;;;2.72;;
19434;SDS011;9853;50.848;4.108;2023-07-31T08:58:43;6.63;;;3.05;;
19434;SDS011;9853;50.848;4.108;2023-07-31T09:00:45;8.45;;;3.17;;
19434;SDS011;9853;50.848;4.108;2023-07-31T09:02:52;10.52;;;2.92;;
19434;SDS011;9853;50.848;4.108;2023-07-31T09:04:57;12.73;;;3.58;;
19434;SDS011;9853;50.848;4.108;2023-07-31T09:07:02;10.02;;;3.55;;
19434;SDS011;9853;50.848;4.108;2023-07-31T09:09:04;9.23;;;3.22;;
19434;SDS011;9853;50.848;4.108;2023-07-31T09:11:05;6.85;;;3.25;;
19434;SDS011;9853;50.848;4.108;2023-07-31T09:13:05;14.65;;;3.42;;
19434;SDS011;9853;50.848;4.108;2023-07-31T09:15:07;12.00;;;3.50;;
19434;SDS011;9853;50.848;4.108;2023-07-31T09:17:08;9.70;;;3.35;;
19434;SDS011;9853;50.848;4.108;2023-07-31T09:19:09;11.30;;;3.28;;
19434;SDS011;9853;50.848;4.108;2023-07-31T09:21:10;10.43;;;3.35;;
19434;SDS011;9853;50.848;4.108;2023-07-31T09:23:12;9.93;;;3.13;;
19434;SDS011;9853;50.848;4.108;2023-07-31T09:25:21;10.57;;;3.65;;
19434;SDS011;9853;50.848;4.108;2023-07-31T09:27:22;9.25;;;3.50;;
19434;SDS011;9853;50.848;4.108;2023-07-31T09:29:23;9.30;;;3.42;;
19434;SDS011;9853;50.848;4.108;2023-07-31T09:31:33;11.90;;;3.35;;
19434;SDS011;9853;50.848;4.108;2023-07-31T09:33:54;8.68;;;3.78;;
19434;SDS011;9853;50.848;4.108;2023-07-31T09:35:58;8.32;;;3.55;;
19434;SDS011;9853;50.848;4.108;2023-07-31T09:38:01;11.70;;;3.63;;
19434;SDS011;9853;50.848;4.108;2023-07-31T09:40:05;9.32;;;3.47;;
19434;SDS011;9853;50.848;4.108;2023-07-31T09:42:06;9.80;;;3.80;;
19434;SDS011;9853;50.848;4.108;2023-07-31T09:44:07;8.20;;;3.88;;
19434;SDS011;9853;50.848;4.108;2023-07-31T09:46:13;13.85;;;4.07;;
19434;SDS011;9853;50.848;4.108;2023-07-31T09:48:17;13.50;;;4.22;;
19434;SDS011;9853;50.848;4.108;2023-07-31T09:50:19;10.13;;;4.05;;
19434;SDS011;9853;50.848;4.108;2023-07-31T09:52:21;10.55;;;3.88;;
19434;SDS011;9853;50.848;4.108;2023-07-31T09:54:22;11.23;;;4.30;;
19434;SDS011;9853;50.848;4.108;2023-07-31T09:56:23;9.32;;;4.45;;
19434;SDS011;9853;50.848;4.108;2023-07-31T09:58:25;11.80;;;4.05;;
19434;SDS011;9853;50.848;4.108;2023-07-31T10:00:29;11.68;;;4.60;;
19434;SDS011;9853;50.848;4.108;2023-07-31T10:02:31;15.55;;;4.28;;
19434;SDS011;9853;50.848;4.108;2023-07-31T10:04:32;13.13;;;4.32;;
19434;SDS011;9853;50.848;4.108;2023-07-31T10:06:34;10.63;;;4.38;;
19434;SDS011;9853;50.848;4.108;2023-07-31T10:08:36;10.57;;;4.70;;
19434;SDS011;9853;50.848;4.108;2023-07-31T10:10:39;9.20;;;4.50;;
19434;SDS011;9853;50.848;4.108;2023-07-31T10:12:42;9.10;;;4.00;;
19434;SDS011;9853;50.848;4.108;2023-07-31T10:14:45;12.60;;;4.80;;
19434;SDS011;9853;50.848;4.108;2023-07-31T10:16:46;10.95;;;4.18;;
19434;SDS011;9853;50.848;4.108;2023-07-31T10:18:48;10.00;;;4.68;;
19434;SDS011;9853;50.848;4.108;2023-07-31T10:20:50;10.02;;;3.90;;
19434;SDS011;9853;50.848;4.108;2023-07-31T10:22:52;8.32;;;4.03;;
19434;SDS011;9853;50.848;4.108;2023-07-31T10:24:55;10.55;;;4.90;;
19434;SDS011;9853;50.848;4.108;2023-07-31T10:27:00;13.00;;;4.82;;
19434;SDS011;9853;50.848;4.108;2023-07-31T10:29:03;18.02;;;4.63;;
19434;SDS011;9853;50.848;4.108;2023-07-31T10:31:04;10.77;;;4.60;;
19434;SDS011;9853;50.848;4.108;2023-07-31T10:33:06;11.85;;;4.57;;
19434;SDS011;9853;50.848;4.108;2023-07-31T10:35:08;10.73;;;4.40;;
19434;SDS011;9853;50.848;4.108;2023-07-31T10:37:25;11.27;;;4.72;;
19434;SDS011;9853;50.848;4.108;2023-07-31T10:39:33;10.07;;;4.18;;
19434;SDS011;9853;50.848;4.108;2023-07-31T10:41:36;13.68;;;4.75;;
19434;SDS011;9853;50.848;4.108;2023-07-31T10:43:37;12.30;;;4.15;;
19434;SDS011;9853;50.848;4.108;2023-07-31T10:45:44;12.07;;;4.57;;
19434;SDS011;9853;50.848;4.108;2023-07-31T10:47:45;13.30;;;4.18;;
19434;SDS011;9853;50.848;4.108;2023-07-31T10:49:46;14.30;;;4.38;;
19434;SDS011;9853;50.848;4.108;2023-07-31T10:51:48;11.32;;;4.28;;
19434;SDS011;9853;50.848;4.108;2023-07-31T10:53:49;10.88;;;4.40;;
19434;SDS011;9853;50.848;4.108;2023-07-31T10:56:11;13.05;;;4.55;;
19434;SDS011;9853;50.848;4.108;2023-07-31T10:58:14;11.90;;;4.43;;
19434;SDS011;9853;50.848;4.108;2023-07-31T11:02:25;11.23;;;4.38;;
19434;SDS011;9853;50.848;4.108;2023-07-31T11:04:27;12.13;;;4.07;;
19434;SDS011;9853;50.848;4.108;2023-07-31T11:06:31;11.35;;;4.40;;
19434;SDS011;9853;50.848;4.108;2023-07-31T11:08:32;11.32;;;4.15;;
19434;SDS011;9853;50.848;4.108;2023-07-31T11:10:34;9.90;;;4.15;;
19434;SDS011;9853;50.848;4.108;2023-07-31T11:12:35;10.15;;;4.40;;
19434;SDS011;9853;50.848;4.108;2023-07-31T11:14:37;12.00;;;4.55;;
19434;SDS011;9853;50.848;4.108;2023-07-31T11:16:38;12.93;;;4.38;;
19434;SDS011;9853;50.848;4.108;2023-07-31T11:18:42;16.10;;;4.00;;
19434;SDS011;9853;50.848;4.108;2023-07-31T11:20:44;8.57;;;4.50;;
19434;SDS011;9853;50.848;4.108;2023-07-31T11:22:45;12.10;;;4.32;;
19434;SDS011;9853;50.848;4.108;2023-07-31T11:24:47;12.20;;;4.72;;
19434;SDS011;9853;50.848;4.108;2023-07-31T11:26:51;11.88;;;4.93;;
19434;SDS011;9853;50.848;4.108;2023-07-31T11:28:52;13.27;;;4.60;;
19434;SDS011;9853;50.848;4.108;2023-07-31T11:30:54;12.98;;;5.10;;
19434;SDS011;9853;50.848;4.108;2023-07-31T11:32:56;11.73;;;4.65;;
19434;SDS011;9853;50.848;4.108;2023-07-31T11:34:57;10.80;;;5.20;;
19434;SDS011;9853;50.848;4.108;2023-07-31T11:36:58;9.40;;;4.57;;
19434;SDS011;9853;50.848;4.108;2023-07-31T11:39:08;10.35;;;4.28;;
19434;SDS011;9853;50.848;4.108;2023-07-31T11:41:10;15.45;;;4.43;;
19434;SDS011;9853;50.848;4.108;2023-07-31T11:43:13;12.70;;;4.57;;
19434;SDS011;9853;50.848;4.108;2023-07-31T11:45:17;18.40;;;4.95;;
19434;SDS011;9853;50.848;4.108;2023-07-31T11:47:18;14.20;;;4.72;;
19434;SDS011;9853;50.848;4.108;2023-07-31T11:49:19;11.32;;;4.68;;
19434;SDS011;9853;50.848;4.108;2023-07-31T11:51:21;12.30;;;4.22;;
19434;SDS011;9853;50.848;4.108;2023-07-31T11:53:27;9.68;;;4.25;;
19434;SDS011;9853;50.848;4.108;2023-07-31T11:55:38;16.15;;;4.57;;
19434;SDS011;9853;50.848;4.108;2023-07-31T11:57:39;19.30;;;4.93;;
19434;SDS011;9853;50.848;4.108;2023-07-31T11:59:43;9.07;;;3.95;;
19434;SDS011;9853;50.848;4.108;2023-07-31T12:01:44;12.27;;;4.20;;
19434;SDS011;9853;50.848;4.108;2023-07-31T12:03:46;11.98;;;4.50;;
19434;SDS011;9853;50.848;4.108;2023-07-31T12:05:47;18.75;;;4.72;;
19434;SDS011;9853;50.848;4.108;2023-07-31T12:07:50;12.90;;;4.25;;
19434;SDS011;9853;50.848;4.108;2023-07-31T12:09:55;11.18;;;4.38;;
19434;SDS011;9853;50.848;4.108;2023-07-31T12:11:56;12.50;;;4.28;;
19434;SDS011;9853;50.848;4.108;2023-07-31T12:13:57;10.68;;;4.35;;
19434;SDS011;9853;50.848;4.108;2023-07-31T12:16:01;11.45;;;4.65;;
19434;SDS011;9853;50.848;4.108;2023-07-31T12:18:04;11.30;;;4.75;;
19434;SDS011;9853;50.848;4.108;2023-07-31T12:20:12;12.55;;;4.60;;
19434;SDS011;9853;50.848;4.108;2023-07-31T12:22:13;12.80;;;4.45;;
19434;SDS011;9853;50.848;4.108;2023-07-31T12:24:17;16.08;;;4.82;;